Time;durP1;ratioP1;P1;durP2;ratioP2;P2;SDS_P1;SDS_P2;PMS_P1;PMS_P2;Temp;Humidity;BMP_temperature;BMP_pressure;BME280_temperature;BME280_humidity;BME280_pressure;Samples;Min_cycle;Max_cycle;Signal;HPM_P1;HPM_P2
2021/04/15 00:00:22;;;;;;;3.70;2.00;;;6.50;61.90;6.80;100181.00;;;;340251;28;83955;-86
2021/04/15 00:00:42;;;;;;;4.07;1.80;;;6.50;61.80;6.80;100184.00;;;;338267;28;92635;-86
2021/04/15 00:01:31;;;;;;;2.80;1.55;;;6.60;61.90;6.60;100179.00;;;;340375;28;82311;-86
2021/04/15 00:01:44;;;;;;;4.53;2.10;;;6.60;62.10;6.80;100181.00;;;;336322;28;92115;-85
2021/04/15 00:01:55;;;;;;;4.13;2.10;;;6.50;62.60;6.80;100173.00;;;;338846;28;84570;-86
2021/04/15 00:02:07;;;;;;;4.70;2.20;;;6.60;62.00;6.80;100179.00;;;;337307;28;91833;-86
2021/04/15 00:02:19;;;;;;;3.88;1.90;;;6.60;62.00;6.70;100174.00;;;;340298;28;84604;-86
2021/04/15 00:02:30;;;;;;;3.90;1.83;;;6.60;61.90;6.70;100186.00;;;;338094;28;91480;-86
2021/04/15 00:02:42;;;;;;;3.80;1.85;;;6.50;61.80;6.80;100179.00;;;;338570;28;85251;-86
2021/04/15 00:02:53;;;;;;;3.97;1.95;;;6.50;61.70;6.80;100176.00;;;;336000;28;90027;-85
2021/04/15 00:03:11;;;;;;;3.80;1.83;;;6.50;62.50;6.80;100179.00;;;;340250;28;84916;-86
2021/04/15 00:03:29;;;;;;;5.07;2.35;;;6.50;62.10;6.70;100175.00;;;;338542;28;92527;-86
2021/04/15 00:03:41;;;;;;;5.30;2.40;;;6.50;62.00;6.80;100175.00;;;;338866;28;84441;-86
2021/04/15 00:03:52;;;;;;;5.57;2.22;;;6.50;62.40;6.80;100176.00;;;;336027;28;89902;-85
2021/04/15 00:04:09;;;;;;;5.25;1.95;;;6.50;61.90;6.90;100170.00;;;;337813;28;83415;-86
2021/04/15 00:04:22;;;;;;;3.83;1.73;;;6.50;61.80;6.90;100178.00;;;;337332;28;88753;-86
2021/04/15 00:04:34;;;;;;;3.70;2.00;;;6.60;61.90;6.90;100176.00;;;;334741;28;84066;-86
2021/04/15 00:04:46;;;;;;;3.13;1.95;;;6.60;61.90;6.70;100173.00;;;;334645;29;89941;-86
2021/04/15 00:04:57;;;;;;;2.88;1.85;;;6.50;62.00;6.80;100179.00;;;;334941;28;83322;-86
2021/04/15 00:05:11;;;;;;;2.70;1.67;;;6.50;62.00;6.80;100179.00;;;;337074;28;92750;-86
2021/04/15 00:05:26;;;;;;;2.83;1.65;;;6.50;61.80;6.80;100173.00;;;;337663;28;83391;-86
2021/04/15 00:05:38;;;;;;;3.28;1.85;;;6.50;62.00;6.90;100174.00;;;;337248;28;89243;-85
2021/04/15 00:05:49;;;;;;;5.38;2.47;;;6.50;61.90;6.90;100175.00;;;;337518;28;84738;-86
2021/04/15 00:06:18;;;;;;;6.28;2.50;;;6.60;61.80;6.80;100176.00;;;;337284;28;89048;-86
2021/04/15 00:06:30;;;;;;;3.15;1.77;;;6.50;61.80;6.80;100175.00;;;;337703;28;83337;-86
2021/04/15 00:06:42;;;;;;;3.35;1.98;;;6.60;61.80;6.70;100168.00;;;;339924;28;91689;-86
2021/04/15 00:06:53;;;;;;;3.42;1.95;;;6.60;62.40;6.80;100166.00;;;;339058;28;83317;-86
2021/04/15 00:07:04;;;;;;;3.13;1.88;;;6.60;61.80;6.60;100165.00;;;;339876;28;89385;-86
2021/04/15 00:07:16;;;;;;;3.35;1.70;;;6.60;61.90;6.60;100181.00;;;;336404;28;82881;-86
2021/04/15 00:07:27;;;;;;;4.05;1.95;;;6.50;62.10;6.70;100173.00;;;;336916;28;90416;-86
2021/04/15 00:07:42;;;;;;;4.53;1.70;;;6.50;62.60;6.80;100174.00;;;;334903;29;84750;-86
2021/04/15 00:07:54;;;;;;;4.47;1.50;;;6.60;62.10;6.80;100170.00;;;;339831;28;90804;-85
2021/04/15 00:08:09;;;;;;;4.15;1.67;;;6.50;62.00;6.80;100168.00;;;;338946;28;83508;-85
2021/04/15 00:08:21;;;;;;;2.92;1.98;;;6.60;62.50;6.80;100166.00;;;;339938;28;91943;-86
2021/04/15 00:08:32;;;;;;;3.00;2.05;;;6.60;61.80;6.90;100176.00;;;;339586;28;83569;-86
2021/04/15 00:08:44;;;;;;;3.58;1.95;;;6.60;61.80;6.90;100171.00;;;;335648;28;90744;-86
2021/04/15 00:08:57;;;;;;;3.58;1.77;;;6.60;61.80;6.80;100174.00;;;;337605;28;82750;-86
2021/04/15 00:09:15;;;;;;;4.20;2.15;;;6.60;61.70;6.80;100177.00;;;;337065;28;90630;-86
2021/04/15 00:09:26;;;;;;;3.50;2.53;;;6.60;61.90;6.90;100174.00;;;;336279;28;84199;-86
2021/04/15 00:09:38;;;;;;;3.95;2.20;;;6.60;62.50;6.90;100177.00;;;;339833;28;93692;-86
2021/04/15 00:09:49;;;;;;;4.38;1.90;;;6.60;61.70;6.90;100172.00;;;;337671;28;83478;-85
2021/04/15 00:10:00;;;;;;;4.07;1.70;;;6.60;61.80;6.90;100180.00;;;;337252;28;92070;-86
2021/04/15 00:10:12;;;;;;;3.78;1.67;;;6.60;61.80;6.90;100182.00;;;;337629;28;84733;-86
2021/04/15 00:10:39;;;;;;;4.20;1.90;;;6.60;61.80;6.90;100175.00;;;;337214;28;92570;-86
2021/04/15 00:10:54;;;;;;;4.32;2.30;;;6.60;61.70;6.70;100179.00;;;;336241;28;84703;-86
2021/04/15 00:11:05;;;;;;;4.32;2.15;;;6.60;61.80;6.80;100177.00;;;;337008;28;89784;-85
2021/04/15 00:11:19;;;;;;;3.75;1.98;;;6.60;61.90;6.70;100179.00;;;;338953;28;83440;-86
2021/04/15 00:11:31;;;;;;;2.50;1.75;;;6.60;62.10;6.80;100166.00;;;;335882;28;91951;-86
2021/04/15 00:11:43;;;;;;;2.58;1.60;;;6.60;62.00;6.70;100177.00;;;;336272;28;83488;-86
2021/04/15 00:11:54;;;;;;;2.83;1.67;;;6.60;62.00;6.70;100167.00;;;;338469;28;90080;-85
2021/04/15 00:12:06;;;;;;;3.92;1.63;;;6.60;62.00;6.80;100182.00;;;;337655;28;83470;-85
2021/04/15 00:12:17;;;;;;;4.28;1.77;;;6.60;62.00;6.60;100175.00;;;;337287;28;91371;-86
2021/04/15 00:12:29;;;;;;;4.25;1.95;;;6.50;62.30;6.60;100175.00;;;;337592;28;84906;-85
2021/04/15 00:12:40;;;;;;;4.65;1.95;;;6.50;62.10;6.60;100177.00;;;;337324;28;89557;-85
2021/04/15 00:12:51;;;;;;;5.80;1.88;;;6.50;62.10;6.70;100178.00;;;;337617;28;84783;-85
2021/04/15 00:13:18;;;;;;;5.75;1.75;;;6.50;62.10;6.80;100169.00;;;;334525;29;92270;-85
2021/04/15 00:13:38;;;;;;;3.55;1.85;;;6.50;62.20;6.70;100181.00;;;;337852;28;84826;-86
2021/04/15 00:13:52;;;;;;;3.35;1.98;;;6.50;62.20;6.70;100171.00;;;;334586;29;88665;-86
2021/04/15 00:14:04;;;;;;;3.75;1.90;;;6.50;62.20;6.80;100170.00;;;;338708;28;84609;-86
2021/04/15 00:14:19;;;;;;;3.30;1.88;;;6.50;62.90;6.80;100172.00;;;;337174;28;90701;-86
2021/04/15 00:14:31;;;;;;;2.83;1.83;;;6.50;62.20;6.80;100179.00;;;;340627;28;83096;-86
2021/04/15 00:14:42;;;;;;;3.22;1.77;;;6.50;62.60;6.90;100176.00;;;;335995;28;92131;-85
2021/04/15 00:14:53;;;;;;;3.53;1.80;;;6.50;62.00;6.90;100180.00;;;;336319;28;83833;-86
2021/04/15 00:15:10;;;;;;;5.13;2.10;;;6.50;62.70;6.80;100172.00;;;;334550;29;89588;-86
2021/04/15 00:15:22;;;;;;;4.55;2.05;;;6.50;62.20;6.90;100178.00;;;;337542;28;85198;-86
2021/04/15 00:15:33;;;;;;;4.88;1.83;;;6.50;62.20;6.90;100184.00;;;;335957;28;92022;-86
2021/04/15 00:15:44;;;;;;;5.03;1.80;;;6.50;62.30;6.90;100167.00;;;;338128;28;86497;-86
2021/04/15 00:15:56;;;;;;;4.90;1.67;;;6.50;62.30;6.90;100170.00;;;;338544;28;93119;-86
2021/04/15 00:16:08;;;;;;;5.93;2.13;;;6.50;62.40;6.90;100170.00;;;;338831;28;84837;-85
2021/04/15 00:16:20;;;;;;;6.63;1.90;;;6.50;62.20;7.00;100180.00;;;;337329;28;90778;-86
2021/04/15 00:16:32;;;;;;;4.93;1.67;;;6.50;62.80;6.90;100177.00;;;;337628;28;84708;-86
2021/04/15 00:16:44;;;;;;;3.58;1.50;;;6.50;62.20;6.90;100176.00;;;;339141;28;89196;-85
2021/04/15 00:16:56;;;;;;;3.90;1.77;;;6.50;62.40;6.80;100171.00;;;;338907;28;83383;-86
2021/04/15 00:17:07;;;;;;;4.30;1.85;;;6.50;63.00;6.80;100169.00;;;;337097;28;92132;-86
2021/04/15 00:17:19;;;;;;;3.90;1.80;;;6.50;62.80;6.80;100166.00;;;;337754;28;82372;-86
2021/04/15 00:17:34;;;;;;;3.55;1.90;;;6.50;62.10;6.80;100169.00;;;;335510;28;89277;-85
2021/04/15 00:17:46;;;;;;;3.95;2.03;;;6.50;62.80;6.80;100175.00;;;;338607;28;83405;-86
2021/04/15 00:17:58;;;;;;;3.17;1.70;;;6.50;62.20;6.80;100180.00;;;;335963;28;92020;-85
2021/04/15 00:18:10;;;;;;;3.03;1.70;;;6.50;62.80;6.90;100174.00;;;;336319;28;83417;-86
2021/04/15 00:18:21;;;;;;;3.33;1.90;;;6.50;62.20;6.80;100173.00;;;;337202;28;92176;-86
2021/04/15 00:18:33;;;;;;;3.55;1.95;;;6.50;62.30;6.80;100173.00;;;;336209;28;85189;-86
2021/04/15 00:18:45;;;;;;;3.72;1.75;;;6.50;62.30;6.70;100172.00;;;;337311;28;89673;-85
2021/04/15 00:18:57;;;;;;;3.40;1.55;;;6.50;62.40;6.80;100168.00;;;;337689;28;83332;-86
2021/04/15 00:19:09;;;;;;;3.85;1.52;;;6.50;62.30;6.80;100164.00;;;;337056;28;91540;-85
2021/04/15 00:19:20;;;;;;;3.50;1.50;;;6.60;62.30;6.80;100174.00;;;;334822;29;85702;-86
2021/04/15 00:19:31;;;;;;;4.43;1.50;;;6.50;62.40;6.90;100169.00;;;;337235;28;92651;-86
2021/04/15 00:19:43;;;;;;;5.07;1.70;;;6.50;62.40;6.80;100174.00;;;;336171;28;84444;-86
2021/04/15 00:19:54;;;;;;;6.25;2.20;;;6.50;62.40;6.70;100163.00;;;;338515;28;91042;-86
2021/04/15 00:20:07;;;;;;;5.28;2.45;;;6.50;62.40;6.70;100185.00;;;;334899;29;84758;-86
2021/04/15 00:20:18;;;;;;;4.45;2.58;;;6.50;62.30;6.80;100165.00;;;;335965;28;90395;-85
2021/04/15 00:20:30;;;;;;;4.55;2.53;;;6.50;62.20;6.80;100166.00;;;;333652;29;82498;-86
2021/04/15 00:20:41;;;;;;;3.58;2.15;;;6.50;62.30;6.80;100171.00;;;;336022;28;89065;-86
2021/04/15 00:20:53;;;;;;;3.50;2.15;;;6.50;62.40;6.80;100169.00;;;;337607;28;84819;-86
2021/04/15 00:21:05;;;;;;;4.15;2.25;;;6.50;62.50;6.80;100170.00;;;;337164;28;92779;-85
2021/04/15 00:21:17;;;;;;;5.25;2.35;;;6.50;62.50;6.60;100179.00;;;;338870;28;84585;-85
2021/04/15 00:21:28;;;;;;;5.15;2.17;;;6.50;62.60;6.70;100171.00;;;;335985;28;92203;-85
2021/04/15 00:21:40;;;;;;;5.10;1.98;;;6.50;62.40;6.80;100165.00;;;;336050;28;84880;-86
2021/04/15 00:21:51;;;;;;;3.17;1.73;;;6.50;62.50;6.80;100166.00;;;;334553;29;89208;-86
2021/04/15 00:22:02;;;;;;;3.40;1.83;;;6.50;62.50;6.80;100155.00;;;;336386;28;83346;-86
2021/04/15 00:22:14;;;;;;;3.17;1.83;;;6.50;62.70;6.80;100169.00;;;;335808;28;93162;-85
2021/04/15 00:22:25;;;;;;;4.05;1.65;;;6.50;62.70;6.90;100169.00;;;;334719;28;83473;-86
2021/04/15 00:22:36;;;;;;;3.92;1.73;;;6.50;62.70;6.90;100163.00;;;;333252;29;89077;-86
2021/04/15 00:22:48;;;;;;;3.40;1.90;;;6.50;62.70;6.90;100170.00;;;;337509;28;84520;-86
2021/04/15 00:22:59;;;;;;;2.38;1.73;;;6.50;62.50;6.80;100166.00;;;;337236;28;90553;-86
2021/04/15 00:23:11;;;;;;;2.90;1.90;;;6.50;62.40;6.90;100164.00;;;;338690;28;84672;-86
2021/04/15 00:23:23;;;;;;;3.42;1.75;;;6.50;62.30;6.80;100163.00;;;;336051;28;89607;-85
2021/04/15 00:23:35;;;;;;;4.63;2.00;;;6.50;62.20;6.90;100159.00;;;;337506;28;84788;-86
2021/04/15 00:23:47;;;;;;;4.25;1.85;;;6.60;62.20;6.80;100158.00;;;;334650;29;91826;-86
2021/04/15 00:23:58;;;;;;;3.47;1.63;;;6.60;62.40;6.80;100162.00;;;;336264;28;85134;-85
2021/04/15 00:24:10;;;;;;;2.53;1.48;;;6.60;62.30;6.80;100166.00;;;;334522;29;92893;-86
2021/04/15 00:24:21;;;;;;;3.67;1.65;;;6.60;62.40;6.80;100156.00;;;;337607;28;84601;-86
2021/04/15 00:24:32;;;;;;;4.80;1.98;;;6.50;62.40;6.80;100162.00;;;;338473;28;89342;-86
2021/04/15 00:24:44;;;;;;;5.07;2.03;;;6.60;62.50;6.60;100163.00;;;;338831;28;83848;-85
2021/04/15 00:24:55;;;;;;;4.38;1.98;;;6.50;62.60;6.70;100155.00;;;;337258;28;92452;-85
2021/04/15 00:25:08;;;;;;;5.13;1.90;;;6.50;63.00;6.70;100164.00;;;;338893;28;84572;-86
2021/04/15 00:25:19;;;;;;;5.20;1.70;;;6.50;62.70;6.70;100156.00;;;;334649;29;89399;-85
2021/04/15 00:25:31;;;;;;;4.72;1.70;;;6.50;62.50;6.60;100171.00;;;;333399;29;85303;-86
2021/04/15 00:25:42;;;;;;;5.45;1.77;;;6.50;62.60;6.60;100171.00;;;;333595;29;89349;-86
2021/04/15 00:25:53;;;;;;;6.30;1.95;;;6.50;62.70;6.70;100172.00;;;;334992;29;83799;-86
2021/04/15 00:26:07;;;;;;;4.88;1.90;;;6.50;62.70;6.70;100155.00;;;;335897;28;89267;-86
2021/04/15 00:26:20;;;;;;;3.80;1.92;;;6.50;62.70;6.70;100155.00;;;;336385;28;83483;-86
2021/04/15 00:26:32;;;;;;;4.22;2.15;;;6.50;62.70;6.70;100166.00;;;;334450;29;91027;-86
2021/04/15 00:26:43;;;;;;;4.45;2.10;;;6.50;62.70;6.80;100163.00;;;;337657;28;83375;-86
2021/04/15 00:26:55;;;;;;;4.22;1.77;;;6.50;62.70;6.70;100158.00;;;;337239;28;91010;-86
2021/04/15 00:27:07;;;;;;;3.45;1.38;;;6.50;62.70;6.60;100162.00;;;;337657;28;83348;-85
2021/04/15 00:27:19;;;;;;;3.72;1.38;;;6.50;62.80;6.50;100153.00;;;;337204;28;90982;-85
2021/04/15 00:27:31;;;;;;;3.80;1.65;;;6.40;63.00;6.60;100164.00;;;;336077;28;85020;-86
2021/04/15 00:27:42;;;;;;;3.92;2.20;;;6.40;63.00;6.60;100162.00;;;;335825;28;91725;-86
2021/04/15 00:27:54;;;;;;;4.28;2.28;;;6.40;63.20;6.60;100159.00;;;;334963;29;82558;-86
2021/04/15 00:28:05;;;;;;;4.45;2.20;;;6.40;63.10;6.70;100158.00;;;;334681;29;90414;-85
2021/04/15 00:28:16;;;;;;;3.50;1.80;;;6.40;63.00;6.60;100155.00;;;;336147;28;84813;-85
2021/04/15 00:28:28;;;;;;;3.53;1.85;;;6.50;63.10;6.60;100151.00;;;;335014;28;91197;-85
2021/04/15 00:28:39;;;;;;;3.72;1.85;;;6.50;62.90;6.50;100162.00;;;;335107;28;84538;-86
2021/04/15 00:28:51;;;;;;;3.40;1.70;;;6.40;63.00;6.50;100155.00;;;;334743;29;89663;-86
2021/04/15 00:29:03;;;;;;;2.90;1.70;;;6.40;63.10;6.60;100155.00;;;;334423;29;85565;-86
2021/04/15 00:29:14;;;;;;;3.35;1.95;;;6.40;63.00;6.60;100163.00;;;;335978;28;89441;-86
2021/04/15 00:29:26;;;;;;;3.30;1.90;;;6.40;63.00;6.60;100157.00;;;;336398;28;83489;-86
2021/04/15 00:29:37;;;;;;;3.58;1.73;;;6.40;63.20;6.60;100148.00;;;;334411;29;92052;-86
2021/04/15 00:29:48;;;;;;;3.08;1.50;;;6.40;63.10;6.60;100152.00;;;;334917;29;84847;-85
2021/04/15 00:30:00;;;;;;;3.70;1.58;;;6.40;63.20;6.60;100159.00;;;;339797;28;93504;-85
2021/04/15 00:30:12;;;;;;;3.95;1.88;;;6.40;63.10;6.60;100159.00;;;;336258;28;85112;-86
2021/04/15 00:30:24;;;;;;;4.60;1.83;;;6.40;63.10;6.60;100151.00;;;;335815;28;92651;-86
2021/04/15 00:30:35;;;;;;;4.13;1.67;;;6.40;63.10;6.60;100161.00;;;;337520;28;83584;-85
2021/04/15 00:30:48;;;;;;;3.75;1.55;;;6.40;63.00;6.60;100157.00;;;;337103;28;89739;-86
2021/04/15 00:30:59;;;;;;;3.55;1.67;;;6.40;63.10;6.60;100148.00;;;;337497;28;85493;-85
2021/04/15 00:31:11;;;;;;;3.80;1.60;;;6.40;63.00;6.50;100153.00;;;;331949;29;92721;-85
2021/04/15 00:31:23;;;;;;;3.92;1.92;;;6.40;63.20;6.50;100154.00;;;;336218;28;84130;-86
2021/04/15 00:31:35;;;;;;;4.80;2.17;;;6.40;63.10;6.60;100149.00;;;;332894;29;89195;-85
2021/04/15 00:31:46;;;;;;;5.10;2.25;;;6.40;63.10;6.60;100161.00;;;;334815;29;84487;-86
2021/04/15 00:31:57;;;;;;;5.45;2.30;;;6.40;63.20;6.60;100146.00;;;;337095;28;92822;-86
2021/04/15 00:32:09;;;;;;;4.82;1.95;;;6.40;63.30;6.70;100155.00;;;;336421;28;83303;-85
2021/04/15 00:32:21;;;;;;;4.50;1.67;;;6.40;63.10;6.70;100149.00;;;;337223;28;92362;-85
2021/04/15 00:32:32;;;;;;;3.38;1.23;;;6.40;63.10;6.70;100159.00;;;;336923;28;84681;-86
2021/04/15 00:32:44;;;;;;;3.35;1.50;;;6.40;63.00;6.80;100156.00;;;;333403;29;89542;-85
2021/04/15 00:32:55;;;;;;;4.07;1.70;;;6.40;62.80;6.80;100150.00;;;;336309;28;84444;-86
2021/04/15 00:33:08;;;;;;;4.22;1.90;;;6.40;62.70;6.80;100155.00;;;;337168;28;92068;-86
2021/04/15 00:33:20;;;;;;;3.60;2.03;;;6.40;62.70;6.80;100155.00;;;;337506;28;84592;-86
2021/04/15 00:33:31;;;;;;;3.65;1.77;;;6.40;62.70;6.60;100158.00;;;;335970;28;91568;-86
2021/04/15 00:33:44;;;;;;;3.53;1.77;;;6.50;62.90;6.60;100157.00;;;;334980;29;83801;-84
2021/04/15 00:33:55;;;;;;;4.00;2.03;;;6.40;62.90;6.70;100151.00;;;;336999;28;94051;-86
2021/04/15 00:34:07;;;;;;;3.52;2.00;;;6.50;63.20;6.70;100152.00;;;;337576;28;84892;-85
2021/04/15 00:34:19;;;;;;;3.58;2.15;;;6.50;63.10;6.70;100152.00;;;;334628;29;91788;-86
2021/04/15 00:34:30;;;;;;;3.50;2.03;;;6.50;63.00;6.70;100150.00;;;;337274;28;85130;-86
2021/04/15 00:34:42;;;;;;;3.05;1.88;;;6.50;63.00;6.70;100149.00;;;;333471;29;91969;-86
2021/04/15 00:34:53;;;;;;;3.20;1.73;;;6.50;62.90;6.70;100155.00;;;;336234;28;85229;-86
2021/04/15 00:35:05;;;;;;;3.55;1.60;;;6.50;62.90;6.80;100143.00;;;;337218;28;88321;-86
2021/04/15 00:35:19;;;;;;;4.03;1.80;;;6.50;63.00;6.80;100158.00;;;;336183;28;84643;-86
2021/04/15 00:35:30;;;;;;;3.25;2.00;;;6.50;63.00;6.90;100151.00;;;;335783;28;91561;-86
2021/04/15 00:35:42;;;;;;;3.53;1.95;;;6.50;62.90;6.80;100154.00;;;;338784;28;85188;-86
2021/04/15 00:35:53;;;;;;;4.22;2.03;;;6.50;63.00;6.90;100164.00;;;;335908;28;90396;-86
2021/04/15 00:36:05;;;;;;;4.45;1.70;;;6.50;63.60;6.90;100151.00;;;;337710;28;83604;-85
2021/04/15 00:36:17;;;;;;;3.92;1.60;;;6.50;63.00;6.80;100159.00;;;;337234;28;90780;-85
2021/04/15 00:36:29;;;;;;;3.67;1.65;;;6.50;63.00;6.60;100160.00;;;;337452;28;84665;-85
2021/04/15 00:36:43;;;;;;;4.03;1.83;;;6.50;62.90;6.70;100158.00;;;;334574;29;91829;-86
2021/04/15 00:36:55;;;;;;;4.05;2.08;;;6.50;63.20;6.70;100151.00;;;;336242;28;84939;-86
2021/04/15 00:37:06;;;;;;;3.67;2.00;;;6.50;63.20;6.70;100147.00;;;;335910;28;89908;-86
2021/04/15 00:37:17;;;;;;;3.50;2.00;;;6.50;63.10;6.70;100156.00;;;;336162;28;82455;-87
2021/04/15 00:37:29;;;;;;;4.85;1.92;;;6.50;63.10;6.70;100153.00;;;;336800;28;89490;-85
2021/04/15 00:37:40;;;;;;;4.88;1.90;;;6.50;63.00;6.80;100147.00;;;;338724;28;82500;-86
2021/04/15 00:37:52;;;;;;;4.35;1.88;;;6.50;63.60;6.70;100154.00;;;;335756;28;93576;-85
2021/04/15 00:38:04;;;;;;;3.28;1.77;;;6.50;63.10;6.70;100158.00;;;;336580;28;83851;-85
2021/04/15 00:38:17;;;;;;;3.03;1.60;;;6.50;63.10;6.80;100155.00;;;;337252;28;91639;-85
2021/04/15 00:38:28;;;;;;;4.63;2.17;;;6.50;63.10;6.80;100147.00;;;;334806;29;84660;-86
2021/04/15 00:38:39;;;;;;;4.43;2.28;;;6.50;63.10;6.70;100153.00;;;;334531;29;91767;-86
2021/04/15 00:38:51;;;;;;;4.55;1.80;;;6.50;63.20;6.80;100148.00;;;;336417;28;83607;-86
2021/04/15 00:39:03;;;;;;;3.65;1.58;;;6.50;63.10;6.80;100149.00;;;;334576;29;92051;-85
2021/04/15 00:39:16;;;;;;;3.92;1.83;;;6.50;63.60;6.80;100153.00;;;;336311;28;83601;-86
2021/04/15 00:39:27;;;;;;;3.30;2.00;;;6.50;63.10;6.70;100150.00;;;;333259;29;92816;-86
2021/04/15 00:39:38;;;;;;;3.17;1.67;;;6.50;63.10;6.80;100145.00;;;;337587;28;85273;-85
2021/04/15 00:39:50;;;;;;;2.97;1.85;;;6.50;63.80;6.80;100155.00;;;;335577;28;91894;-86
2021/04/15 00:40:01;;;;;;;2.80;1.90;;;6.50;63.10;6.70;100148.00;;;;335032;29;83438;-86
2021/04/15 00:40:14;;;;;;;2.78;1.90;;;6.40;63.30;6.60;100154.00;;;;335614;28;91785;-86
2021/04/15 00:40:26;;;;;;;3.10;1.67;;;6.50;63.30;6.70;100153.00;;;;337207;28;83710;-86
2021/04/15 00:40:38;;;;;;;3.25;1.63;;;6.40;63.20;6.80;100155.00;;;;336918;28;92627;-86
2021/04/15 00:40:51;;;;;;;2.80;1.48;;;6.50;63.20;6.80;100151.00;;;;336187;28;83531;-86
2021/04/15 00:41:03;;;;;;;3.28;1.58;;;6.50;63.30;6.80;100153.00;;;;335861;28;91679;-86
2021/04/15 00:41:16;;;;;;;3.30;1.65;;;6.50;63.30;6.80;100154.00;;;;334907;29;84577;-85
2021/04/15 00:41:27;;;;;;;3.10;1.65;;;6.50;63.30;6.90;100148.00;;;;333429;29;89167;-86
2021/04/15 00:41:39;;;;;;;3.50;1.55;;;6.50;63.30;6.90;100155.00;;;;333681;29;84368;-86
2021/04/15 00:41:50;;;;;;;4.68;1.55;;;6.50;63.20;6.80;100148.00;;;;334418;29;93331;-86
2021/04/15 00:42:02;;;;;;;4.07;1.48;;;6.50;63.20;6.60;100156.00;;;;336251;28;85588;-86
2021/04/15 00:42:14;;;;;;;3.60;1.52;;;6.50;63.40;6.70;100152.00;;;;337010;28;91791;-86
2021/04/15 00:42:25;;;;;;;4.32;1.85;;;6.50;63.30;6.80;100155.00;;;;334714;29;84449;-86
2021/04/15 00:42:37;;;;;;;4.00;2.00;;;6.50;63.30;6.90;100154.00;;;;337318;28;88442;-86
2021/04/15 00:42:48;;;;;;;3.13;1.70;;;6.50;63.30;6.80;100149.00;;;;336237;28;82482;-86
2021/04/15 00:43:00;;;;;;;2.60;1.58;;;6.50;63.30;6.80;100152.00;;;;334712;29;89612;-86
2021/04/15 00:43:12;;;;;;;2.35;1.40;;;6.50;63.40;6.70;100155.00;;;;336140;28;83603;-86
2021/04/15 00:43:26;;;;;;;2.90;1.35;;;6.50;63.40;6.70;100156.00;;;;335962;28;92615;-85
2021/04/15 00:43:41;;;;;;;4.43;1.60;;;6.50;63.40;6.80;100149.00;;;;336981;28;85349;-85
2021/04/15 00:43:53;;;;;;;3.45;1.70;;;6.50;63.50;6.80;100146.00;;;;334535;29;88999;-85
2021/04/15 00:44:04;;;;;;;4.28;1.92;;;6.50;64.10;6.70;100148.00;;;;333382;29;85477;-86
2021/04/15 00:44:16;;;;;;;4.05;1.98;;;6.50;63.50;6.50;100151.00;;;;334779;29;88537;-86
2021/04/15 00:44:27;;;;;;;3.03;1.70;;;6.50;63.50;6.60;100147.00;;;;333571;29;84583;-85
2021/04/15 00:44:38;;;;;;;3.30;1.92;;;6.50;63.40;6.50;100150.00;;;;333129;29;92679;-86
2021/04/15 00:44:52;;;;;;;3.17;1.80;;;6.40;63.40;6.60;100150.00;;;;334860;29;84724;-86
2021/04/15 00:45:23;;;;;;;4.68;2.30;;;6.40;63.40;6.60;100154.00;;;;334719;29;89139;-86
2021/04/15 00:45:40;;;;;;;2.95;1.90;;;6.50;64.00;6.50;100158.00;;;;337619;28;83520;-85
2021/04/15 00:45:52;;;;;;;4.05;1.83;;;6.40;63.60;6.60;100155.00;;;;334505;29;92625;-86
2021/04/15 00:46:46;;;;;;;4.55;2.20;;;6.40;63.60;6.30;100166.00;;;;337619;28;84702;-86
2021/04/15 00:47:06;;;;;;;4.82;2.08;;;6.40;63.60;6.30;100162.00;;;;337146;28;91994;-86
2021/04/15 00:47:23;;;;;;;5.15;2.05;;;6.30;64.00;6.30;100152.00;;;;336209;28;85151;-86
2021/04/15 00:47:35;;;;;;;3.97;1.73;;;6.30;64.00;6.30;100161.00;;;;337168;28;89252;-85
2021/04/15 00:48:00;;;;;;;3.78;1.60;;;6.30;64.10;6.40;100157.00;;;;335973;28;84447;-86
2021/04/15 00:48:38;;;;;;;5.38;1.88;;;6.20;64.00;6.30;100157.00;;;;335935;28;92166;-85
2021/04/15 00:48:50;;;;;;;3.05;1.63;;;6.20;64.10;6.20;100155.00;;;;336336;28;83673;-85
2021/04/15 00:49:01;;;;;;;4.00;1.95;;;6.20;64.60;6.20;100158.00;;;;337201;28;91922;-86
2021/04/15 00:49:31;;;;;;;5.35;2.40;;;6.10;64.50;6.30;100154.00;;;;338843;28;85634;-85
2021/04/15 00:49:52;;;;;;;2.75;1.60;;;6.10;64.40;6.30;100159.00;;;;334817;28;92201;-86
2021/04/15 00:50:30;;;;;;;2.42;1.90;;;6.10;64.70;6.40;100155.00;;;;337525;28;84480;-85
2021/04/15 00:50:54;;;;;;;3.97;1.90;;;6.10;64.40;6.40;100153.00;;;;335680;28;93647;-85
2021/04/15 00:51:34;;;;;;;2.97;1.95;;;6.10;64.70;6.20;100160.00;;;;336347;28;83360;-85
2021/04/15 00:51:49;;;;;;;2.75;1.73;;;6.10;65.00;6.30;100154.00;;;;334226;29;90029;-86
2021/04/15 00:52:04;;;;;;;2.78;1.80;;;6.10;64.90;6.30;100148.00;;;;337637;28;84013;-85
2021/04/15 00:52:19;;;;;;;3.53;1.70;;;6.10;64.90;6.40;100151.00;;;;337273;28;92624;-85
2021/04/15 00:52:35;;;;;;;4.78;1.80;;;6.10;64.80;6.30;100152.00;;;;335407;28;83693;-86
2021/04/15 00:52:50;;;;;;;4.55;2.00;;;6.10;64.80;6.40;100144.00;;;;336662;28;89628;-86
2021/04/15 00:53:04;;;;;;;3.35;1.85;;;6.10;64.70;6.30;100145.00;;;;337482;28;82558;-85
2021/04/15 00:53:20;;;;;;;3.03;1.65;;;6.10;64.80;6.40;100147.00;;;;333144;29;92555;-85
2021/04/15 00:53:42;;;;;;;3.75;1.73;;;6.10;64.70;6.50;100158.00;;;;338735;28;83538;-86
2021/04/15 00:54:02;;;;;;;3.15;1.73;;;6.10;64.40;6.30;100160.00;;;;335915;28;92769;-85
2021/04/15 00:54:48;;;;;;;2.85;1.70;;;6.10;64.70;6.30;100156.00;;;;337730;28;83383;-85
2021/04/15 00:55:06;;;;;;;9.23;2.90;;;6.10;64.90;6.40;100156.00;;;;335865;28;88993;-86
2021/04/15 00:55:20;;;;;;;5.97;2.15;;;6.10;65.00;6.40;100156.00;;;;336351;28;83505;-86
2021/04/15 00:55:32;;;;;;;4.25;2.30;;;6.10;64.90;6.30;100151.00;;;;335690;28;92265;-85
2021/04/15 00:55:44;;;;;;;4.80;2.65;;;6.10;65.00;6.40;100152.00;;;;337525;28;83447;-86
2021/04/15 00:55:55;;;;;;;4.55;2.67;;;6.00;64.80;6.40;100145.00;;;;333281;29;92437;-86
2021/04/15 00:56:07;;;;;;;3.63;2.22;;;6.10;64.90;6.40;100147.00;;;;336508;28;83413;-85
2021/04/15 00:56:18;;;;;;;2.95;1.90;;;6.10;64.90;6.30;100149.00;;;;334760;29;88348;-86
2021/04/15 00:56:30;;;;;;;4.22;2.28;;;6.10;65.00;6.30;100147.00;;;;336152;28;84326;-85
2021/04/15 00:56:41;;;;;;;4.88;2.28;;;6.10;65.00;6.40;100143.00;;;;334543;29;92976;-85
2021/04/15 00:56:53;;;;;;;5.70;1.98;;;6.10;64.80;6.50;100151.00;;;;337518;28;84670;-86
2021/04/15 00:57:07;;;;;;;4.18;1.80;;;6.10;64.80;6.50;100150.00;;;;334576;29;89036;-86
2021/04/15 00:57:27;;;;;;;7.47;1.83;;;6.10;64.90;6.40;100147.00;;;;340095;28;85821;-86
2021/04/15 00:57:39;;;;;;;5.95;1.70;;;6.10;65.50;6.30;100145.00;;;;337281;28;89247;-86
2021/04/15 00:57:51;;;;;;;2.25;1.50;;;6.10;65.00;6.40;100151.00;;;;338713;28;84356;-86
2021/04/15 00:58:02;;;;;;;2.75;2.15;;;6.10;65.60;6.50;100157.00;;;;337153;28;89257;-86
2021/04/15 00:58:15;;;;;;;2.83;2.17;;;6.10;64.90;6.50;100150.00;;;;337562;28;83384;-86
2021/04/15 00:58:26;;;;;;;4.45;2.42;;;6.10;64.90;6.50;100148.00;;;;334450;28;92519;-85
2021/04/15 00:58:39;;;;;;;4.70;2.03;;;6.10;64.80;6.30;100146.00;;;;336089;28;85066;-85
2021/04/15 00:58:51;;;;;;;3.88;2.00;;;6.10;65.00;6.20;100146.00;;;;334643;29;90684;-85
2021/04/15 00:59:02;;;;;;;3.60;1.80;;;6.10;65.70;6.30;100147.00;;;;337492;28;83494;-86
2021/04/15 00:59:14;;;;;;;3.15;1.67;;;6.10;65.00;6.40;100147.00;;;;334598;29;91677;-86
2021/04/15 00:59:25;;;;;;;3.58;1.75;;;6.10;64.90;6.30;100148.00;;;;335104;29;82426;-85
2021/04/15 00:59:37;;;;;;;3.70;1.70;;;6.10;65.00;6.30;100152.00;;;;334462;29;88915;-86
2021/04/15 00:59:48;;;;;;;3.17;1.90;;;6.10;65.10;6.40;100150.00;;;;337553;28;83566;-85
2021/04/15 01:00:00;;;;;;;3.13;2.33;;;6.10;65.00;6.30;100151.00;;;;335770;28;91883;-86
2021/04/15 01:00:12;;;;;;;3.97;2.47;;;6.10;65.20;6.40;100149.00;;;;336241;28;83475;-85
2021/04/15 01:00:27;;;;;;;4.55;2.22;;;6.10;65.20;6.40;100149.00;;;;335879;28;91857;-85
2021/04/15 01:00:38;;;;;;;4.10;1.65;;;6.10;65.10;6.20;100153.00;;;;337678;28;83308;-86
2021/04/15 01:00:50;;;;;;;3.90;2.00;;;6.10;65.90;6.30;100155.00;;;;334525;29;92883;-86
2021/04/15 01:01:01;;;;;;;3.38;1.75;;;6.10;65.20;6.30;100155.00;;;;337534;28;84931;-85
2021/04/15 01:01:12;;;;;;;3.55;2.03;;;6.10;65.20;6.20;100140.00;;;;335877;28;92417;-86
2021/04/15 01:01:24;;;;;;;3.47;2.00;;;6.10;65.20;6.20;100152.00;;;;336365;28;83552;-86